createdAt,value
2022-09-01T00:00:02.599Z,19.43
2022-09-01T00:02:35.218Z,21.30
2022-09-01T00:05:04.674Z,20.63
2022-09-01T00:07:34.659Z,19.50
2022-09-01T00:10:07.887Z,19.97
2022-09-01T00:12:36.136Z,18.40
2022-09-01T00:15:05.924Z,19.60
2022-09-01T00:17:34.459Z,19.77
2022-09-01T00:20:02.556Z,18.43
2022-09-01T00:22:30.683Z,18.17
2022-09-01T00:24:58.795Z,18.20
2022-09-01T00:27:31.031Z,18.10
2022-09-01T00:29:59.479Z,19.57
2022-09-01T00:32:28.559Z,19.00
2022-09-01T00:34:56.671Z,19.00
2022-09-01T00:37:24.834Z,18.47
2022-09-01T00:39:53.073Z,19.57
2022-09-01T00:42:21.294Z,20.93
2022-09-01T00:44:50.787Z,18.10
2022-09-01T00:47:19.197Z,18.00
2022-09-01T00:49:50.630Z,20.10
2022-09-01T00:52:23.722Z,18.60
2022-09-01T00:54:55.938Z,19.30
2022-09-01T00:57:24.143Z,17.77
2022-09-01T01:00:00.096Z,18.80
2022-09-01T01:02:28.503Z,18.60
2022-09-01T01:04:59.587Z,18.83
2022-09-01T01:07:29.269Z,18.50
2022-09-01T01:09:58.006Z,19.10
2022-09-01T01:12:30.108Z,18.47
2022-09-01T01:14:59.705Z,18.77
2022-09-01T01:17:27.793Z,19.47
2022-09-01T01:20:15.019Z,18.90
2022-09-01T01:23:05.712Z,19.57
2022-09-01T01:25:41.958Z,19.07
2022-09-01T01:28:14.420Z,18.67
2022-09-01T01:30:45.562Z,19.60
2022-09-01T01:33:13.798Z,21.40
2022-09-01T01:35:43.800Z,22.20
2022-09-01T01:38:11.982Z,22.97
2022-09-01T01:40:42.201Z,20.30
2022-09-01T01:43:12.243Z,23.80
2022-09-01T01:45:40.553Z,23.80
2022-09-01T01:48:10.760Z,23.43
2022-09-01T01:50:40.822Z,23.70
2022-09-01T01:53:12.085Z,22.30
2022-09-01T01:55:43.870Z,23.40
2022-09-01T01:58:15.039Z,24.13
2022-09-01T02:00:47.606Z,22.10
2022-09-01T02:03:19.092Z,23.80
2022-09-01T02:05:49.199Z,24.13
2022-09-01T02:08:21.996Z,24.60
2022-09-01T02:10:54.799Z,22.50
2022-09-01T02:13:31.170Z,22.47
2022-09-01T02:16:01.797Z,23.57
2022-09-01T02:18:34.366Z,23.97
2022-09-01T02:21:03.554Z,22.60
2022-09-01T02:23:32.711Z,24.53
2022-09-01T02:26:18.186Z,22.30
2022-09-01T02:28:55.509Z,24.63
2022-09-01T02:31:39.287Z,22.17
2022-09-01T02:34:10.663Z,21.70
2022-09-01T02:36:44.280Z,22.70
2022-09-01T02:39:13.633Z,21.97
2022-09-01T02:41:43.179Z,23.90
2022-09-01T02:44:12.755Z,22.60
2022-09-01T02:46:43.160Z,22.40
2022-09-01T02:49:15.298Z,24.50
2022-09-01T02:51:45.195Z,21.70
2022-09-01T02:54:15.455Z,23.50
2022-09-01T02:56:48.121Z,23.17
2022-09-01T02:59:16.591Z,23.13
2022-09-01T03:01:47.584Z,22.87
2022-09-01T03:04:15.934Z,21.23
2022-09-01T03:06:44.313Z,22.03
2022-09-01T03:09:15.918Z,22.40
2022-09-01T03:11:48.087Z,21.93
2022-09-01T03:14:17.042Z,23.67
2022-09-01T03:16:45.335Z,23.70
2022-09-01T03:19:15.157Z,24.23
2022-09-01T03:21:45.276Z,24.73
2022-09-01T03:24:18.642Z,22.87
2022-09-01T03:26:50.306Z,24.60
2022-09-01T03:29:20.140Z,23.10
2022-09-01T03:31:48.738Z,24.03
2022-09-01T03:34:18.628Z,24.03
2022-09-01T03:36:51.208Z,23.47
2022-09-01T03:39:29.701Z,24.20
2022-09-01T03:41:59.409Z,23.60
2022-09-01T03:44:28.414Z,24.50
2022-09-01T03:46:58.454Z,26.50
2022-09-01T03:49:28.587Z,25.60
2022-09-01T03:51:58.727Z,23.60
2022-09-01T03:54:30.521Z,25.20
2022-09-01T03:57:00.700Z,25.00
2022-09-01T03:59:30.428Z,26.73
2022-09-01T04:02:00.256Z,27.40
2022-09-01T04:04:31.562Z,26.70
2022-09-01T04:07:01.254Z,25.67
2022-09-01T04:09:30.788Z,26.90
2022-09-01T04:12:00.306Z,26.07
2022-09-01T04:14:29.216Z,27.77
2022-09-01T04:17:16.085Z,29.00
2022-09-01T04:19:44.211Z,28.33
2022-09-01T04:22:17.733Z,27.30
2022-09-01T04:24:46.916Z,28.13
2022-09-01T04:27:18.288Z,28.57
2022-09-01T04:29:47.815Z,27.30
2022-09-01T04:32:16.108Z,29.03
2022-09-01T04:34:50.976Z,28.60
2022-09-01T04:37:21.823Z,30.90
2022-09-01T04:39:58.948Z,28.90
2022-09-01T04:42:32.523Z,28.20
2022-09-01T04:45:10.325Z,29.60
2022-09-01T04:47:42.317Z,29.00
2022-09-01T04:50:17.678Z,28.60
2022-09-01T04:53:07.261Z,26.73
2022-09-01T04:55:44.764Z,26.97
2022-09-01T04:58:18.657Z,26.90
2022-09-01T05:00:49.675Z,27.70
2022-09-01T05:03:21.647Z,28.50
2022-09-01T05:06:17.709Z,26.03
2022-09-01T05:08:52.187Z,27.30
2022-09-01T05:11:50.175Z,26.40
2022-09-01T05:14:29.652Z,28.50
2022-09-01T05:16:59.337Z,28.77
2022-09-01T05:19:30.884Z,26.70
2022-09-01T05:22:01.219Z,25.27
2022-09-01T05:24:32.172Z,27.83
2022-09-01T05:27:05.015Z,27.33
2022-09-01T05:29:38.583Z,28.40
2022-09-01T05:32:10.253Z,27.50
2022-09-01T05:34:39.868Z,28.80
2022-09-01T05:37:13.150Z,28.10
2022-09-01T05:39:41.891Z,27.13
2022-09-01T05:42:11.606Z,29.60
2022-09-01T05:44:45.022Z,30.67
2022-09-01T05:47:20.944Z,29.40
2022-09-01T05:49:53.598Z,25.90
2022-09-01T05:52:26.255Z,28.90
2022-09-01T05:54:56.777Z,29.03
2022-09-01T05:57:35.206Z,30.57
2022-09-01T06:00:14.042Z,28.00
2022-09-01T06:02:43.332Z,28.87
2022-09-01T06:05:17.180Z,28.40
2022-09-01T06:07:47.735Z,30.43
2022-09-01T06:10:16.334Z,30.43
2022-09-01T06:12:45.707Z,31.40
2022-09-01T06:15:20.995Z,31.30
2022-09-01T06:17:52.651Z,32.37
2022-09-01T06:20:22.947Z,32.73
2022-09-01T06:22:53.447Z,32.57
2022-09-01T06:25:22.411Z,33.40
2022-09-01T06:27:52.463Z,34.13
2022-09-01T06:30:24.461Z,31.77
2022-09-01T06:33:03.010Z,29.30
2022-09-01T06:35:33.035Z,32.03
2022-09-01T06:38:02.051Z,33.40
2022-09-01T06:40:41.720Z,31.57
2022-09-01T06:43:14.032Z,32.00
2022-09-01T06:45:49.873Z,33.47
2022-09-01T06:48:20.059Z,34.10
2022-09-01T06:53:37.240Z,32.63
2022-09-01T06:56:13.190Z,33.47
2022-09-01T06:58:45.016Z,34.00
2022-09-01T07:01:16.174Z,33.13
2022-09-01T07:03:45.233Z,35.30
2022-09-01T07:09:49.890Z,31.20
2022-09-01T07:13:04.837Z,32.37
2022-09-01T07:18:22.848Z,33.20
2022-09-01T07:24:07.845Z,32.43
2022-09-01T07:26:35.653Z,31.37
2022-09-01T07:29:06.075Z,30.00
2022-09-01T07:38:47.103Z,30.97
2022-09-01T07:42:55.654Z,33.03
2022-09-01T07:42:59.050Z,32.47
2022-09-01T07:43:32.624Z,32.90
2022-09-01T07:46:37.071Z,30.10
2022-09-01T07:51:57.497Z,32.33
2022-09-01T07:54:28.045Z,30.13
2022-09-01T07:56:58.271Z,30.03
2022-09-01T07:59:27.930Z,30.20
2022-09-01T08:02:22.094Z,32.53
2022-09-01T08:04:50.362Z,32.07
2022-09-01T08:07:20.797Z,34.03
2022-09-01T08:09:49.110Z,34.57
2022-09-01T08:12:17.635Z,32.47
2022-09-01T08:15:13.040Z,32.23
2022-09-01T08:17:51.568Z,34.60
2022-09-01T08:20:20.787Z,33.07
2022-09-01T08:23:03.427Z,33.90
2022-09-01T08:25:38.593Z,33.37
2022-09-01T08:28:07.803Z,33.70
2022-09-01T08:30:36.801Z,31.10
2022-09-01T08:33:12.722Z,29.07
2022-09-01T08:35:48.327Z,30.43
2022-09-01T08:38:18.771Z,28.90
2022-09-01T08:40:56.832Z,26.80
2022-09-01T08:43:43.701Z,26.30
2022-09-01T08:46:18.221Z,24.60
2022-09-01T08:52:04.399Z,24.23
2022-09-01T08:54:40.169Z,24.67
2022-09-01T08:57:12.259Z,24.43
2022-09-01T08:59:59.650Z,22.57
2022-09-01T09:02:47.895Z,21.80
2022-09-01T09:05:34.233Z,22.30
2022-09-01T09:08:33.252Z,20.60
2022-09-01T09:11:07.583Z,17.93
2022-09-01T09:13:48.522Z,18.03
2022-09-01T09:16:22.440Z,17.53
2022-09-01T09:18:55.693Z,17.47
2022-09-01T09:21:30.069Z,17.77
2022-09-01T09:24:05.287Z,17.30
2022-09-01T09:26:50.103Z,17.63
2022-09-01T09:29:18.697Z,18.10
2022-09-01T09:31:50.048Z,18.83
2022-09-01T09:34:32.644Z,19.53
2022-09-01T09:37:17.517Z,16.80
2022-09-01T09:39:45.763Z,17.10
2022-09-01T09:42:16.145Z,17.30
2022-09-01T09:44:49.232Z,16.13
2022-09-01T09:47:43.659Z,18.97
2022-09-01T09:50:20.227Z,18.67
2022-09-01T09:52:49.521Z,17.23
2022-09-01T09:55:25.319Z,16.37
2022-09-01T09:57:59.006Z,14.07
2022-09-01T10:00:29.727Z,13.97
2022-09-01T10:03:07.897Z,14.20
2022-09-01T10:05:43.246Z,13.50
2022-09-01T10:08:16.568Z,13.70
2022-09-01T10:10:58.298Z,15.20
2022-09-01T10:13:31.473Z,14.83
2022-09-01T10:16:03.744Z,14.73
2022-09-01T10:18:39.717Z,14.23
2022-09-01T10:21:12.346Z,14.10
2022-09-01T10:23:41.827Z,15.30
2022-09-01T10:26:15.949Z,14.27
2022-09-01T10:28:57.004Z,14.40
2022-09-01T10:31:29.535Z,14.90
2022-09-01T10:34:05.679Z,14.43
2022-09-01T10:36:37.411Z,14.90
2022-09-01T10:39:11.438Z,14.90
2022-09-01T10:42:00.208Z,13.97
2022-09-01T10:44:34.367Z,13.73
2022-09-01T10:47:13.553Z,12.80
2022-09-01T10:49:59.334Z,14.93
2022-09-01T10:53:04.969Z,14.97
2022-09-01T10:55:47.172Z,14.37
2022-09-01T11:05:18.024Z,13.20
2022-09-01T11:08:09.170Z,13.80
2022-09-01T11:10:54.880Z,12.60
2022-09-01T11:13:46.298Z,13.00
2022-09-01T11:16:49.514Z,13.40
2022-09-01T11:19:31.987Z,14.23
2022-09-01T11:22:30.597Z,14.63
2022-09-01T11:25:39.269Z,13.63
2022-09-01T11:28:11.190Z,14.60
2022-09-01T11:30:55.365Z,14.80
2022-09-01T11:33:44.221Z,15.70
2022-09-01T11:36:28.287Z,15.50
2022-09-01T11:39:05.555Z,15.13
2022-09-01T11:41:44.388Z,16.53
2022-09-01T11:44:24.349Z,15.93
2022-09-01T11:46:57.204Z,15.47
2022-09-01T11:49:29.475Z,15.43
2022-09-01T11:51:59.834Z,15.27
2022-09-01T11:54:30.999Z,14.90
2022-09-01T11:56:59.135Z,13.33
2022-09-01T11:59:35.967Z,15.10
2022-09-01T12:02:05.295Z,13.90
2022-09-01T12:04:36.790Z,14.90
2022-09-01T12:07:10.742Z,14.30
2022-09-01T12:09:44.129Z,14.83
2022-09-01T12:12:30.291Z,14.07
2022-09-01T12:15:05.757Z,14.00
2022-09-01T12:17:34.687Z,14.03
2022-09-01T12:20:25.437Z,14.70
2022-09-01T12:22:56.561Z,13.93
2022-09-01T12:25:28.405Z,14.37
2022-09-01T12:27:56.923Z,14.27
2022-09-01T12:30:25.885Z,14.67
2022-09-01T12:33:22.947Z,14.60
2022-09-01T12:35:43.923Z,14.30
2022-09-01T12:38:23.872Z,14.40
2022-09-01T12:40:55.326Z,14.90
2022-09-01T12:43:37.052Z,14.27
2022-09-01T12:46:06.591Z,15.03
2022-09-01T12:48:36.778Z,16.60
2022-09-01T12:51:09.529Z,13.73
2022-09-01T12:53:38.036Z,16.30
2022-09-01T12:56:19.595Z,17.20
2022-09-01T12:58:52.212Z,17.13
2022-09-01T13:01:29.338Z,16.20
2022-09-01T13:04:31.044Z,16.73
2022-09-01T13:07:04.091Z,16.23
2022-09-01T13:09:32.367Z,15.73
2022-09-01T13:12:20.828Z,16.13
2022-09-01T13:14:48.929Z,15.20
2022-09-01T13:17:17.738Z,15.20
2022-09-01T13:19:45.862Z,16.90
2022-09-01T13:22:13.939Z,15.13
2022-09-01T13:24:42.056Z,15.27
2022-09-01T13:27:26.497Z,15.40
2022-09-01T13:29:57.145Z,15.43
2022-09-01T13:32:25.685Z,15.40
2022-09-01T13:34:55.314Z,15.20
2022-09-01T13:37:24.514Z,15.13
2022-09-01T13:39:52.686Z,14.40
2022-09-01T13:42:21.324Z,14.23
2022-09-01T13:44:52.482Z,15.37
2022-09-01T13:47:30.221Z,15.27
2022-09-01T13:50:08.971Z,14.83
2022-09-01T13:52:40.135Z,14.20
2022-09-01T13:55:11.170Z,15.67
2022-09-01T13:57:39.708Z,14.70
2022-09-01T14:00:11.152Z,14.40
2022-09-01T14:02:42.193Z,15.33
2022-09-01T14:05:11.060Z,14.70
2022-09-01T14:07:39.152Z,14.83
2022-09-01T14:10:08.928Z,16.20
2022-09-01T14:12:37.483Z,17.10
2022-09-01T14:15:12.016Z,17.67
2022-09-01T14:17:44.843Z,16.57
2022-09-01T14:20:18.356Z,15.70
2022-09-01T14:22:47.595Z,14.60
2022-09-01T14:25:17.489Z,15.10
2022-09-01T14:27:46.431Z,15.30
2022-09-01T14:30:18.883Z,15.50
2022-09-01T14:32:49.604Z,15.90
2022-09-01T14:35:19.214Z,16.77
2022-09-01T14:37:48.011Z,16.40
2022-09-01T14:40:18.263Z,15.93
2022-09-01T14:42:49.201Z,15.93
2022-09-01T14:45:19.624Z,17.40
2022-09-01T14:47:50.671Z,16.80
2022-09-01T14:50:22.892Z,18.87
2022-09-01T14:52:54.218Z,17.53
2022-09-01T14:55:23.632Z,17.20
2022-09-01T14:57:52.257Z,18.00
2022-09-01T15:00:21.264Z,17.37
2022-09-01T15:02:50.738Z,17.77
2022-09-01T15:05:19.718Z,18.73
2022-09-01T15:07:47.842Z,18.17
2022-09-01T15:10:25.311Z,17.90
2022-09-01T15:12:57.895Z,18.53
2022-09-01T15:15:27.810Z,18.40
2022-09-01T15:17:57.930Z,17.20
2022-09-01T15:20:43.518Z,17.73
2022-09-01T15:23:12.506Z,16.03
2022-09-01T15:25:40.759Z,14.40
2022-09-01T15:28:09.293Z,13.90
2022-09-01T15:30:38.828Z,14.40
2022-09-01T15:33:15.189Z,13.30
2022-09-01T15:35:44.809Z,13.20
2022-09-01T15:38:15.816Z,14.60
2022-09-01T15:40:57.799Z,13.70
2022-09-01T15:43:27.450Z,13.73
2022-09-01T15:45:58.032Z,13.47
2022-09-01T15:48:28.142Z,14.40
2022-09-01T15:51:16.111Z,14.10
2022-09-01T15:53:44.711Z,13.47
2022-09-01T15:56:12.934Z,15.27
2022-09-01T15:59:01.103Z,14.20
2022-09-01T16:01:30.969Z,14.57
2022-09-01T16:04:01.547Z,12.77
2022-09-01T16:06:30.317Z,13.70
2022-09-01T16:08:58.768Z,11.90
2022-09-01T16:11:27.414Z,12.60
2022-09-01T16:13:55.968Z,12.93
2022-09-01T16:16:40.505Z,13.33
2022-09-01T16:19:21.752Z,13.00
2022-09-01T16:21:55.450Z,13.07
2022-09-01T16:24:25.228Z,13.40
2022-09-01T16:26:53.598Z,12.70
2022-09-01T16:29:28.831Z,13.77
2022-09-01T16:31:57.536Z,13.13
2022-09-01T16:34:28.565Z,13.80
2022-09-01T16:37:05.684Z,14.20
2022-09-01T16:39:46.975Z,13.60
2022-09-01T16:42:26.267Z,13.40
2022-09-01T16:45:04.463Z,13.37
2022-09-01T16:47:45.809Z,12.70
2022-09-01T16:50:24.697Z,13.27
2022-09-01T16:53:08.470Z,13.80
2022-09-01T16:55:46.492Z,14.60
2022-09-01T16:58:22.603Z,15.77
2022-09-01T17:00:59.472Z,16.80
2022-09-01T17:03:42.791Z,16.43
2022-09-01T17:06:20.866Z,17.83
2022-09-01T17:08:54.930Z,17.67
2022-09-01T17:11:28.033Z,16.43
2022-09-01T17:13:57.315Z,17.90
2022-09-01T17:16:30.870Z,18.17
2022-09-01T17:19:01.104Z,18.67
2022-09-01T17:21:34.414Z,19.60
2022-09-01T17:24:12.585Z,18.80
2022-09-01T17:26:44.042Z,18.10
2022-09-01T17:29:23.263Z,19.10
2022-09-01T17:32:01.158Z,19.37
2022-09-01T17:34:38.829Z,18.10
2022-09-01T17:37:20.614Z,17.93
2022-09-01T17:39:59.706Z,17.83
2022-09-01T17:42:34.539Z,19.07
2022-09-01T17:45:13.122Z,19.93
2022-09-01T17:47:51.161Z,18.80
2022-09-01T17:50:23.735Z,19.27
2022-09-01T17:53:02.690Z,20.40
2022-09-01T17:55:46.708Z,19.30
2022-09-01T17:58:39.094Z,20.60
2022-09-01T18:01:11.279Z,18.80
2022-09-01T18:03:59.196Z,18.17
2022-09-01T18:06:34.839Z,19.37
2022-09-01T18:09:06.384Z,17.80
2022-09-01T18:11:44.248Z,17.53
2022-09-01T18:14:16.118Z,20.33
2022-09-01T18:16:58.121Z,18.30
2022-09-01T18:19:33.084Z,18.77
2022-09-01T18:22:04.356Z,16.13
2022-09-01T18:24:40.140Z,18.07
2022-09-01T18:27:09.187Z,17.07
2022-09-01T18:29:38.665Z,17.97
2022-09-01T18:32:18.999Z,17.27
2022-09-01T18:35:08.243Z,18.03
2022-09-01T18:37:47.560Z,19.40
2022-09-01T18:40:27.511Z,18.37
2022-09-01T18:43:03.599Z,19.57
2022-09-01T18:45:44.018Z,17.83
2022-09-01T18:48:26.483Z,18.93
2022-09-01T18:50:59.824Z,19.57
2022-09-01T18:53:42.115Z,19.10
2022-09-01T18:56:20.503Z,20.10
2022-09-01T18:59:04.230Z,20.80
2022-09-01T19:01:36.205Z,21.93
2022-09-01T19:04:11.605Z,20.30
2022-09-01T19:06:51.535Z,21.60
2022-09-01T19:09:28.134Z,21.00
2022-09-01T19:12:10.566Z,21.27
2022-09-01T19:14:46.635Z,21.30
2022-09-01T19:17:43.066Z,20.83
2022-09-01T19:20:15.703Z,22.80
2022-09-01T19:22:49.221Z,21.43
2022-09-01T19:25:43.023Z,21.07
2022-09-01T19:28:19.599Z,20.27
2022-09-01T19:30:52.802Z,20.60
2022-09-01T19:33:25.934Z,19.40
2022-09-01T19:35:58.715Z,20.13
2022-09-01T19:38:29.046Z,19.43
2022-09-01T19:41:04.969Z,20.77
2022-09-01T19:43:40.289Z,21.67
2022-09-01T19:46:22.410Z,21.30
2022-09-01T19:48:55.781Z,19.90
2022-09-01T19:51:28.999Z,21.37
2022-09-01T19:54:02.392Z,20.10
2022-09-01T19:56:35.508Z,20.60
2022-09-01T19:59:17.598Z,21.90
2022-09-01T20:01:51.201Z,21.20
2022-09-01T20:04:27.994Z,20.57
2022-09-01T20:06:59.168Z,20.23
2022-09-01T20:09:35.652Z,21.20
2022-09-01T20:12:16.194Z,19.63
2022-09-01T20:15:01.039Z,18.90
2022-09-01T20:17:35.396Z,20.70
2022-09-01T20:20:09.046Z,20.40
2022-09-01T20:22:44.973Z,19.43
2022-09-01T20:25:17.929Z,19.77
2022-09-01T20:28:01.283Z,19.87
2022-09-01T20:30:39.884Z,20.67
2022-09-01T20:33:16.611Z,19.43
2022-09-01T20:35:48.461Z,19.13
2022-09-01T20:38:42.057Z,18.63
2022-09-01T20:41:18.675Z,20.10
2022-09-01T20:43:52.201Z,19.30
2022-09-01T20:46:23.153Z,19.53
2022-09-01T20:48:51.640Z,19.17
2022-09-01T20:51:27.520Z,17.97
2022-09-01T20:54:09.988Z,20.10
2022-09-01T20:56:47.131Z,19.73
2022-09-01T20:59:23.675Z,19.43
2022-09-01T21:01:59.768Z,21.80
2022-09-01T21:04:43.487Z,21.30
2022-09-01T21:07:17.156Z,19.80
2022-09-01T21:09:59.321Z,20.50
2022-09-01T21:12:36.234Z,21.47
2022-09-01T21:15:17.862Z,21.83
2022-09-01T21:17:57.746Z,20.90
2022-09-01T21:20:33.084Z,20.60
2022-09-01T21:23:02.079Z,19.83
2022-09-01T21:25:35.458Z,21.80
2022-09-01T21:28:06.859Z,23.10
2022-09-01T21:30:36.932Z,19.97
2022-09-01T21:33:06.497Z,21.57
2022-09-01T21:35:34.589Z,22.03
2022-09-01T21:38:02.687Z,21.23
2022-09-01T21:40:31.302Z,21.10
2022-09-01T21:43:02.141Z,22.00
2022-09-01T21:45:33.358Z,23.20
2022-09-01T21:48:03.342Z,21.63
2022-09-01T21:50:32.869Z,21.07
2022-09-01T21:53:01.270Z,21.47
2022-09-01T21:55:30.504Z,21.77
2022-09-01T21:57:58.646Z,21.10
2022-09-01T22:00:29.241Z,20.70
2022-09-01T22:02:59.435Z,24.50
2022-09-01T22:05:28.279Z,21.73
2022-09-01T22:07:58.946Z,21.37
2022-09-01T22:10:29.593Z,20.73
2022-09-01T22:13:03.471Z,21.20
2022-09-01T22:15:32.065Z,21.60
2022-09-01T22:18:00.551Z,20.37
2022-09-01T22:20:31.810Z,20.43
2022-09-01T22:23:02.862Z,19.10
2022-09-01T22:25:32.239Z,21.50
2022-09-01T22:28:01.196Z,19.40
2022-09-01T22:30:30.058Z,19.93
2022-09-01T22:32:59.781Z,20.77
2022-09-01T22:35:27.958Z,20.60
2022-09-01T22:37:56.211Z,18.33
2022-09-01T22:40:25.723Z,19.00
2022-09-01T22:42:53.887Z,19.30
2022-09-01T22:45:22.182Z,19.70
2022-09-01T22:47:50.371Z,19.73
2022-09-01T22:50:18.557Z,17.50
2022-09-01T22:52:46.646Z,19.33
2022-09-01T22:55:14.738Z,19.37
2022-09-01T22:57:44.180Z,19.17
2022-09-01T23:00:13.523Z,19.97
2022-09-01T23:02:41.730Z,19.97
2022-09-01T23:05:10.127Z,19.57
2022-09-01T23:07:39.812Z,19.97
2022-09-01T23:10:10.362Z,19.97
2022-09-01T23:12:38.963Z,21.67
2022-09-01T23:15:10.348Z,20.60
2022-09-01T23:17:39.990Z,19.80
2022-09-01T23:20:12.471Z,20.30
2022-09-01T23:22:40.661Z,20.17
2022-09-01T23:25:09.911Z,19.73
2022-09-01T23:27:38.495Z,20.23
2022-09-01T23:30:11.231Z,20.73
2022-09-01T23:32:39.615Z,19.93
2022-09-01T23:35:09.498Z,20.17
2022-09-01T23:37:37.989Z,20.50
2022-09-01T23:40:08.249Z,21.90
2022-09-01T23:42:36.439Z,20.90
2022-09-01T23:45:06.076Z,19.83
2022-09-01T23:47:35.664Z,19.70
2022-09-01T23:50:04.558Z,21.17
2022-09-01T23:52:32.819Z,19.77
2022-09-01T23:55:01.448Z,20.63
2022-09-01T23:57:29.659Z,22.93
2022-09-01T23:59:58.357Z,22.47
